ANA738 RJSS-RJOO
Flight info
| Callsign | ANA738 |
|---|---|
| Flight time | 1h 15m |
| Altitude | 34000 |
| Route | DERBY4 RIKYU Y882 GYODA Y88 NAKTU Y12 KOHWA Y546 AGPUK DCT MIRAI DCT ABENO DCT IKOMA DCT |
| Aircraft | A321/M-VGDW/C |
Departure
| Time | 2026-05-04 08:37 |
|---|---|
| Airport | Sendai Airport (RJSS) |
Arrival
| Time | 2026-05-04 09:53 |
|---|---|
| Airport | Osaka Itami International Airport (RJOO) |
| Time | Latitude | Longitude | Altitude | Speed | Heading |
|---|---|---|---|---|---|
| 2026-05-04 08:08 | 38.13893 | 140.93012 | -15 ft | 0 kts | 173° |
| 2026-05-04 08:27 | 38.13898 | 140.93011 | 12 ft | 4 kts | 173° |
| 2026-05-04 08:28 | 38.13925 | 140.93006 | 13 ft | 3 kts | 173° |
| 2026-05-04 08:28 | 38.13946 | 140.93001 | 13 ft | 4 kts | 149° |
| 2026-05-04 08:28 | 38.13963 | 140.92980 | 12 ft | 4 kts | 108° |
| 2026-05-04 08:28 | 38.13965 | 140.92956 | 12 ft | 0 kts | 83° |
| 2026-05-04 08:35 | 38.14156 | 140.93273 | 15 ft | 5 kts | 351° |
| 2026-05-04 08:35 | 38.14189 | 140.93259 | 16 ft | 6 kts | 335° |
| 2026-05-04 08:35 | 38.14215 | 140.93225 | 16 ft | 6 kts | 301° |
| 2026-05-04 08:35 | 38.14218 | 140.93180 | 16 ft | 2 kts | 262° |
| 2026-05-04 08:37 | 38.14118 | 140.92216 | 19 ft | 110 kts | 262° |
| 2026-05-04 08:37 | 38.13996 | 140.91069 | 84 ft | 145 kts | 261° |
| 2026-05-04 08:37 | 38.13875 | 140.89828 | 674 ft | 139 kts | 260° |
| 2026-05-04 08:38 | 38.13750 | 140.88613 | 1308 ft | 138 kts | 264° |
| 2026-05-04 08:38 | 38.13624 | 140.87409 | 1852 ft | 139 kts | 264° |
| 2026-05-04 08:38 | 38.13491 | 140.86116 | 2040 ft | 157 kts | 265° |
| 2026-05-04 08:40 | 38.08336 | 140.75266 | 6343 ft | 225 kts | 237° |
| 2026-05-04 08:40 | 38.07376 | 140.73696 | 7067 ft | 230 kts | 236° |
| 2026-05-04 08:40 | 38.06392 | 140.72069 | 7777 ft | 235 kts | 235° |
| 2026-05-04 08:41 | 38.05396 | 140.70406 | 8533 ft | 238 kts | 234° |
| 2026-05-04 08:41 | 38.04388 | 140.68714 | 9249 ft | 242 kts | 234° |
| 2026-05-04 08:41 | 38.03363 | 140.66995 | 9975 ft | 244 kts | 233° |
| 2026-05-04 08:41 | 38.02328 | 140.65250 | 10371 ft | 256 kts | 235° |
| 2026-05-04 08:42 | 38.01415 | 140.63196 | 10537 ft | 279 kts | 245° |
| 2026-05-04 08:42 | 38.00826 | 140.60748 | 10677 ft | 303 kts | 256° |
| 2026-05-04 08:42 | 38.00666 | 140.58005 | 11001 ft | 319 kts | 264° |
| 2026-05-04 08:42 | 38.00604 | 140.55172 | 11640 ft | 323 kts | 263° |
| 2026-05-04 08:43 | 38.00497 | 140.52320 | 12251 ft | 324 kts | 258° |
| 2026-05-04 08:43 | 37.99766 | 140.49656 | 12816 ft | 321 kts | 236° |
| 2026-05-04 08:43 | 37.98257 | 140.47586 | 13455 ft | 324 kts | 217° |
| 2026-05-04 08:43 | 37.96187 | 140.46427 | 14046 ft | 332 kts | 197° |
| 2026-05-04 08:44 | 37.93856 | 140.46226 | 14649 ft | 339 kts | 188° |
| 2026-05-04 08:44 | 37.91498 | 140.46199 | 15326 ft | 339 kts | 188° |
| 2026-05-04 08:46 | 37.75004 | 140.46082 | 19049 ft | 344 kts | 191° |
| 2026-05-04 08:46 | 37.72605 | 140.46052 | 19415 ft | 346 kts | 192° |
| 2026-05-04 08:46 | 37.70187 | 140.46023 | 19786 ft | 349 kts | 192° |
| 2026-05-04 08:46 | 37.67746 | 140.45996 | 20152 ft | 352 kts | 192° |
| 2026-05-04 08:47 | 37.65290 | 140.45970 | 20513 ft | 354 kts | 192° |
| 2026-05-04 08:47 | 37.62816 | 140.45943 | 20862 ft | 357 kts | 192° |
| 2026-05-04 08:47 | 37.60340 | 140.45840 | 21208 ft | 352 kts | 198° |
| 2026-05-04 08:47 | 37.57988 | 140.45149 | 21558 ft | 340 kts | 209° |
| 2026-05-04 08:48 | 37.55903 | 140.43830 | 21919 ft | 333 kts | 219° |
| 2026-05-04 08:48 | 37.54145 | 140.41974 | 22284 ft | 329 kts | 230° |
| 2026-05-04 08:48 | 37.52766 | 140.39681 | 22634 ft | 329 kts | 239° |
| 2026-05-04 08:48 | 37.51584 | 140.37205 | 23002 ft | 331 kts | 238° |
| 2026-05-04 08:49 | 37.50405 | 140.34745 | 23343 ft | 332 kts | 238° |
| 2026-05-04 08:50 | 37.43127 | 140.19697 | 25196 ft | 339 kts | 238° |
| 2026-05-04 08:50 | 37.41895 | 140.17159 | 25487 ft | 340 kts | 238° |
| 2026-05-04 08:51 | 37.40657 | 140.14614 | 25797 ft | 342 kts | 238° |
| 2026-05-04 08:51 | 37.39413 | 140.12054 | 26112 ft | 343 kts | 238° |
| 2026-05-04 08:51 | 37.38166 | 140.09490 | 26410 ft | 344 kts | 238° |
| 2026-05-04 08:51 | 37.36920 | 140.06923 | 26726 ft | 345 kts | 238° |
| 2026-05-04 08:52 | 37.35669 | 140.04347 | 26999 ft | 346 kts | 238° |
| 2026-05-04 08:52 | 37.34412 | 140.01764 | 27284 ft | 347 kts | 238° |
| 2026-05-04 08:52 | 37.33147 | 139.99174 | 27584 ft | 348 kts | 238° |
| 2026-05-04 08:52 | 37.31875 | 139.96577 | 27824 ft | 349 kts | 237° |
| 2026-05-04 08:53 | 37.30340 | 139.94211 | 28149 ft | 352 kts | 227° |
| 2026-05-04 08:54 | 37.13792 | 139.86860 | 30619 ft | 363 kts | 206° |
| 2026-05-04 08:55 | 37.11366 | 139.86021 | 30958 ft | 361 kts | 206° |
| 2026-05-04 08:55 | 37.08954 | 139.85186 | 31297 ft | 359 kts | 206° |
| 2026-05-04 08:55 | 37.06552 | 139.84353 | 31633 ft | 357 kts | 206° |
| 2026-05-04 08:55 | 37.04153 | 139.83518 | 31978 ft | 356 kts | 206° |
| 2026-05-04 08:57 | 36.87703 | 139.77842 | 33658 ft | 345 kts | 205° |
| 2026-05-04 09:01 | 36.55158 | 139.66662 | 33576 ft | 348 kts | 205° |
| 2026-05-04 09:01 | 36.50479 | 139.65056 | 33571 ft | 349 kts | 205° |
| 2026-05-04 09:02 | 36.45767 | 139.63447 | 33589 ft | 354 kts | 205° |
| 2026-05-04 09:02 | 36.41077 | 139.61653 | 33585 ft | 346 kts | 212° |
| 2026-05-04 09:03 | 36.37268 | 139.58286 | 33585 ft | 333 kts | 228° |
| 2026-05-04 09:03 | 36.34077 | 139.54115 | 33588 ft | 333 kts | 228° |
| 2026-05-04 09:04 | 36.30879 | 139.49951 | 33588 ft | 334 kts | 228° |
| 2026-05-04 09:04 | 36.27682 | 139.45779 | 33594 ft | 334 kts | 228° |
| 2026-05-04 09:05 | 36.24502 | 139.41641 | 33593 ft | 334 kts | 228° |
| 2026-05-04 09:05 | 36.21299 | 139.37480 | 33607 ft | 334 kts | 228° |
| 2026-05-04 09:06 | 36.18085 | 139.33302 | 33600 ft | 334 kts | 228° |
| 2026-05-04 09:07 | 36.10599 | 139.15501 | 33615 ft | 337 kts | 242° |
| 2026-05-04 09:08 | 36.09620 | 139.12872 | 33626 ft | 337 kts | 242° |
| 2026-05-04 09:08 | 36.07653 | 139.07607 | 33621 ft | 337 kts | 241° |
| 2026-05-04 09:09 | 36.05681 | 139.02344 | 33619 ft | 338 kts | 242° |
| 2026-05-04 09:09 | 36.03721 | 138.97101 | 33624 ft | 338 kts | 242° |
| 2026-05-04 09:10 | 36.01744 | 138.91833 | 33621 ft | 338 kts | 242° |
| 2026-05-04 09:10 | 35.99759 | 138.86554 | 33626 ft | 340 kts | 242° |
| 2026-05-04 09:11 | 35.97771 | 138.81259 | 33639 ft | 340 kts | 242° |
| 2026-05-04 09:11 | 35.95777 | 138.75961 | 33641 ft | 340 kts | 242° |
| 2026-05-04 09:12 | 35.93771 | 138.70658 | 33651 ft | 341 kts | 242° |
| 2026-05-04 09:14 | 35.85717 | 138.49460 | 33707 ft | 342 kts | 242° |
| 2026-05-04 09:14 | 35.83696 | 138.44160 | 33714 ft | 341 kts | 242° |
| 2026-05-04 09:15 | 35.81673 | 138.38875 | 33716 ft | 341 kts | 242° |
| 2026-05-04 09:15 | 35.79659 | 138.33629 | 33729 ft | 341 kts | 242° |
| 2026-05-04 09:17 | 35.70527 | 138.09909 | 33783 ft | 339 kts | 242° |
| 2026-05-04 09:18 | 35.68526 | 138.04732 | 33800 ft | 337 kts | 242° |
| 2026-05-04 09:18 | 35.66832 | 138.00376 | 33813 ft | 337 kts | 242° |
| 2026-05-04 09:19 | 35.64600 | 137.94274 | 33822 ft | 337 kts | 243° |
| 2026-05-04 09:19 | 35.63044 | 137.89856 | 33842 ft | 336 kts | 244° |
| 2026-05-04 09:20 | 35.60869 | 137.83761 | 33847 ft | 334 kts | 243° |
| 2026-05-04 09:20 | 35.59296 | 137.79418 | 33845 ft | 335 kts | 243° |
| 2026-05-04 09:21 | 35.57356 | 137.74225 | 33837 ft | 334 kts | 243° |
| 2026-05-04 09:21 | 35.55382 | 137.69049 | 33840 ft | 334 kts | 242° |
| 2026-05-04 09:22 | 35.53411 | 137.63885 | 33851 ft | 334 kts | 242° |
| 2026-05-04 09:22 | 35.51438 | 137.58713 | 33860 ft | 334 kts | 242° |
| 2026-05-04 09:23 | 35.49474 | 137.53559 | 33862 ft | 333 kts | 243° |
| 2026-05-04 09:23 | 35.47443 | 137.48477 | 33872 ft | 331 kts | 236° |
| 2026-05-04 09:25 | 35.33715 | 137.37627 | 33856 ft | 341 kts | 216° |
| 2026-05-04 09:25 | 35.31658 | 137.36253 | 33855 ft | 341 kts | 216° |
| 2026-05-04 09:26 | 35.27485 | 137.33465 | 33850 ft | 341 kts | 216° |
| 2026-05-04 09:26 | 35.23316 | 137.30681 | 33848 ft | 342 kts | 216° |
| 2026-05-04 09:27 | 35.19139 | 137.27908 | 33838 ft | 342 kts | 216° |
| 2026-05-04 09:27 | 35.14950 | 137.25130 | 33840 ft | 342 kts | 216° |
| 2026-05-04 09:28 | 35.10763 | 137.22355 | 33842 ft | 343 kts | 216° |
| 2026-05-04 09:28 | 35.06573 | 137.19569 | 33838 ft | 343 kts | 216° |
| 2026-05-04 09:29 | 35.04700 | 137.18329 | 33838 ft | 343 kts | 216° |
| 2026-05-04 09:29 | 35.00519 | 137.15575 | 33837 ft | 343 kts | 216° |
| 2026-05-04 09:30 | 34.96313 | 137.12806 | 33845 ft | 344 kts | 216° |
| 2026-05-04 09:30 | 34.92100 | 137.10021 | 33640 ft | 345 kts | 216° |
| 2026-05-04 09:31 | 34.89985 | 137.08624 | 32977 ft | 346 kts | 216° |
| 2026-05-04 09:31 | 34.87889 | 137.07243 | 32315 ft | 346 kts | 216° |
| 2026-05-04 09:31 | 34.85772 | 137.05853 | 31652 ft | 346 kts | 216° |
| 2026-05-04 09:31 | 34.83652 | 137.04464 | 30981 ft | 346 kts | 216° |
| 2026-05-04 09:32 | 34.81520 | 137.03065 | 30259 ft | 348 kts | 216° |
| 2026-05-04 09:32 | 34.79380 | 137.01658 | 29455 ft | 351 kts | 216° |
| 2026-05-04 09:34 | 34.68147 | 136.87827 | 24726 ft | 330 kts | 249° |
| 2026-05-04 09:34 | 34.67383 | 136.85205 | 24163 ft | 328 kts | 249° |
| 2026-05-04 09:34 | 34.66620 | 136.82590 | 23616 ft | 326 kts | 249° |
| 2026-05-04 09:34 | 34.65862 | 136.80002 | 22998 ft | 323 kts | 249° |
| 2026-05-04 09:35 | 34.65115 | 136.77448 | 22468 ft | 319 kts | 249° |
| 2026-05-04 09:35 | 34.64373 | 136.74919 | 21945 ft | 317 kts | 249° |
| 2026-05-04 09:35 | 34.63637 | 136.72407 | 21471 ft | 316 kts | 249° |
| 2026-05-04 09:35 | 34.62911 | 136.69927 | 20974 ft | 316 kts | 250° |
| 2026-05-04 09:37 | 34.57728 | 136.52324 | 17812 ft | 317 kts | 251° |
| 2026-05-04 09:37 | 34.56983 | 136.49807 | 17402 ft | 317 kts | 251° |
| 2026-05-04 09:38 | 34.56240 | 136.47295 | 16989 ft | 316 kts | 251° |
| 2026-05-04 09:38 | 34.55511 | 136.44822 | 16587 ft | 315 kts | 251° |
| 2026-05-04 09:38 | 34.54769 | 136.42312 | 16173 ft | 315 kts | 251° |
| 2026-05-04 09:38 | 34.54030 | 136.39817 | 15785 ft | 313 kts | 251° |
| 2026-05-04 09:39 | 34.53292 | 136.37334 | 15375 ft | 312 kts | 252° |
| 2026-05-04 09:39 | 34.52560 | 136.34867 | 14955 ft | 311 kts | 251° |
| 2026-05-04 09:39 | 34.51839 | 136.32386 | 14511 ft | 311 kts | 254° |
| 2026-05-04 09:39 | 34.51391 | 136.29832 | 14059 ft | 309 kts | 261° |
| 2026-05-04 09:40 | 34.51060 | 136.27256 | 13619 ft | 309 kts | 261° |
| 2026-05-04 09:40 | 34.50729 | 136.24690 | 13452 ft | 309 kts | 261° |
| 2026-05-04 09:40 | 34.50393 | 136.22097 | 12732 ft | 314 kts | 262° |
| 2026-05-04 09:40 | 34.50053 | 136.19479 | 12187 ft | 313 kts | 262° |
| 2026-05-04 09:41 | 34.49713 | 136.16882 | 11696 ft | 311 kts | 262° |
| 2026-05-04 09:42 | 34.50659 | 136.00721 | 10039 ft | 253 kts | 289° |
| 2026-05-04 09:43 | 34.51227 | 135.98708 | 9872 ft | 252 kts | 289° |
| 2026-05-04 09:43 | 34.51795 | 135.96680 | 9744 ft | 253 kts | 289° |
| 2026-05-04 09:43 | 34.52358 | 135.94680 | 9609 ft | 253 kts | 289° |
| 2026-05-04 09:43 | 34.52935 | 135.92633 | 9473 ft | 253 kts | 289° |
| 2026-05-04 09:44 | 34.53498 | 135.90632 | 9182 ft | 256 kts | 290° |
| 2026-05-04 09:44 | 34.54080 | 135.88558 | 8660 ft | 256 kts | 289° |
| 2026-05-04 09:44 | 34.54644 | 135.86527 | 8259 ft | 256 kts | 289° |
| 2026-05-04 09:46 | 34.58480 | 135.72607 | 5222 ft | 235 kts | 290° |
| 2026-05-04 09:46 | 34.58982 | 135.70775 | 5113 ft | 223 kts | 290° |
| 2026-05-04 09:46 | 34.59459 | 135.69037 | 5015 ft | 212 kts | 290° |
| 2026-05-04 09:47 | 34.59909 | 135.67391 | 4937 ft | 199 kts | 290° |
| 2026-05-04 09:47 | 34.60382 | 135.65834 | 4839 ft | 194 kts | 299° |
| 2026-05-04 09:49 | 34.66610 | 135.58010 | 2942 ft | 166 kts | 316° |
| 2026-05-04 09:49 | 34.67397 | 135.57060 | 2730 ft | 157 kts | 316° |
| 2026-05-04 09:49 | 34.68151 | 135.56150 | 2543 ft | 149 kts | 316° |
| 2026-05-04 09:51 | 34.72218 | 135.51240 | 1401 ft | 135 kts | 317° |
| 2026-05-04 09:51 | 34.72884 | 135.50435 | 1220 ft | 134 kts | 317° |
| 2026-05-04 09:51 | 34.73541 | 135.49640 | 1042 ft | 134 kts | 316° |
| 2026-05-04 09:51 | 34.74203 | 135.48839 | 871 ft | 134 kts | 317° |
| 2026-05-04 09:52 | 34.74869 | 135.48034 | 705 ft | 135 kts | 318° |
| 2026-05-04 09:52 | 34.75539 | 135.47226 | 543 ft | 135 kts | 315° |
| 2026-05-04 09:52 | 34.76196 | 135.46423 | 403 ft | 133 kts | 316° |
| 2026-05-04 09:52 | 34.76851 | 135.45625 | 211 ft | 133 kts | 319° |
| 2026-05-04 09:53 | 34.77501 | 135.44844 | 59 ft | 130 kts | 317° |
| 2026-05-04 09:53 | 34.78069 | 135.44158 | 49 ft | 91 kts | 315° |
| 2026-05-04 09:53 | 34.78376 | 135.43784 | 48 ft | 33 kts | 314° |
| 2026-05-04 09:53 | 34.78500 | 135.43635 | 46 ft | 16 kts | 317° |
| 2026-05-04 09:54 | 34.78588 | 135.43565 | 46 ft | 14 kts | 333° |
| 2026-05-04 09:54 | 34.78672 | 135.43520 | 49 ft | 12 kts | 336° |
| 2026-05-04 09:54 | 34.78744 | 135.43480 | 49 ft | 11 kts | 336° |
| 2026-05-04 09:54 | 34.78810 | 135.43444 | 49 ft | 11 kts | 336° |
| 2026-05-04 09:55 | 34.78883 | 135.43424 | 49 ft | 11 kts | 357° |
| 2026-05-04 09:55 | 34.78957 | 135.43432 | 49 ft | 10 kts | 13° |
| 2026-05-04 09:55 | 34.79017 | 135.43462 | 51 ft | 8 kts | 31° |
| 2026-05-04 09:55 | 34.79056 | 135.43514 | 49 ft | 10 kts | 62° |
| 2026-05-04 09:56 | 34.79064 | 135.43610 | 49 ft | 12 kts | 96° |
| 2026-05-04 09:56 | 34.79056 | 135.43704 | 48 ft | 11 kts | 96° |
| 2026-05-04 09:56 | 34.79029 | 135.43779 | 48 ft | 10 kts | 130° |
| 2026-05-04 09:56 | 34.78965 | 135.43857 | 47 ft | 16 kts | 135° |
| 2026-05-04 09:57 | 34.78882 | 135.43957 | 46 ft | 16 kts | 135° |
| 2026-05-04 09:57 | 34.78807 | 135.44049 | 47 ft | 13 kts | 135° |
| 2026-05-04 09:57 | 34.78761 | 135.44118 | 48 ft | 9 kts | 100° |
| 2026-05-04 09:57 | 34.78781 | 135.44182 | 48 ft | 8 kts | 66° |
| 2026-05-04 09:58 | 34.78800 | 135.44237 | 48 ft | 7 kts | 68° |
| 2026-05-04 09:58 | 34.78813 | 135.44274 | 48 ft | 3 kts | 68° |
| 2026-05-04 09:58 | 34.78815 | 135.44281 | 48 ft | 1 kts | 67° |
| 2026-05-04 10:00 | 34.78816 | 135.44284 | 48 ft | 0 kts | 67° |